sensor_id;sensor_type;location;lat;lon;timestamp;pressure;altitude;pressure_sealevel;temperature;humidity
50057;BME280;36875;49.468;11.200;2022-09-25T00:00:49;97534.69;;;21.39;46.62
50057;BME280;36875;49.468;11.200;2022-09-25T00:03:16;97535.50;;;21.40;46.87
50057;BME280;36875;49.468;11.200;2022-09-25T00:05:44;97533.09;;;21.38;46.68
50057;BME280;36875;49.468;11.200;2022-09-25T00:08:10;97531.47;;;21.37;46.61
50057;BME280;36875;49.468;11.200;2022-09-25T00:10:39;97538.09;;;21.36;46.64
50057;BME280;36875;49.468;11.200;2022-09-25T00:13:06;97531.66;;;21.32;46.72
50057;BME280;36875;49.468;11.200;2022-09-25T00:15:32;97529.75;;;21.32;46.77
50057;BME280;36875;49.468;11.200;2022-09-25T00:17:57;97536.34;;;21.31;46.98
50057;BME280;36875;49.468;11.200;2022-09-25T00:20:23;97507.91;;;21.15;47.00
50057;BME280;36875;49.468;11.200;2022-09-25T00:22:48;97536.50;;;21.26;46.94
50057;BME280;36875;49.468;11.200;2022-09-25T00:25:14;97534.25;;;21.28;46.74
50057;BME280;36875;49.468;11.200;2022-09-25T00:27:41;97533.31;;;21.24;47.03
50057;BME280;36875;49.468;11.200;2022-09-25T00:30:10;97537.66;;;21.25;47.01
50057;BME280;36875;49.468;11.200;2022-09-25T00:32:37;97537.97;;;21.24;47.07
50057;BME280;36875;49.468;11.200;2022-09-25T00:35:03;97536.03;;;21.24;46.98
50057;BME280;36875;49.468;11.200;2022-09-25T00:37:31;97537.50;;;21.22;46.90
50057;BME280;36875;49.468;11.200;2022-09-25T00:39:58;97529.31;;;21.13;47.10
50057;BME280;36875;49.468;11.200;2022-09-25T00:42:23;97530.28;;;21.17;46.80
50057;BME280;36875;49.468;11.200;2022-09-25T00:44:57;97524.81;;;21.17;47.23
50057;BME280;36875;49.468;11.200;2022-09-25T00:47:27;97521.44;;;21.11;47.09
50057;BME280;36875;49.468;11.200;2022-09-25T00:49:57;97511.50;;;21.07;46.91
50057;BME280;36875;49.468;11.200;2022-09-25T00:52:24;97525.81;;;21.12;47.05
50057;BME280;36875;49.468;11.200;2022-09-25T00:54:53;97513.91;;;21.08;47.08
50057;BME280;36875;49.468;11.200;2022-09-25T00:57:21;97517.59;;;21.12;46.75
50057;BME280;36875;49.468;11.200;2022-09-25T00:59:53;97513.22;;;21.11;47.02
50057;BME280;36875;49.468;11.200;2022-09-25T01:02:23;97515.19;;;21.11;47.31
50057;BME280;36875;49.468;11.200;2022-09-25T01:04:51;97515.81;;;21.08;47.13
50057;BME280;36875;49.468;11.200;2022-09-25T01:07:17;97517.75;;;21.07;47.04
50057;BME280;36875;49.468;11.200;2022-09-25T01:09:43;97512.63;;;21.06;47.26
50057;BME280;36875;49.468;11.200;2022-09-25T01:12:09;97502.53;;;20.97;47.10
50057;BME280;36875;49.468;11.200;2022-09-25T01:14:35;97514.09;;;21.03;47.35
50057;BME280;36875;49.468;11.200;2022-09-25T01:17:06;97510.56;;;21.03;47.04
50057;BME280;36875;49.468;11.200;2022-09-25T01:19:47;97510.06;;;21.01;47.24
50057;BME280;36875;49.468;11.200;2022-09-25T01:22:29;97504.94;;;20.99;47.15
50057;BME280;36875;49.468;11.200;2022-09-25T01:25:09;97506.84;;;20.98;47.18
50057;BME280;36875;49.468;11.200;2022-09-25T01:27:41;97501.38;;;20.98;47.09
50057;BME280;36875;49.468;11.200;2022-09-25T01:30:13;97508.00;;;20.97;47.34
50057;BME280;36875;49.468;11.200;2022-09-25T01:32:50;97506.38;;;20.96;47.04
50057;BME280;36875;49.468;11.200;2022-09-25T01:35:26;97499.31;;;20.95;47.26
50057;BME280;36875;49.468;11.200;2022-09-25T01:37:57;97496.06;;;20.93;47.27
50057;BME280;36875;49.468;11.200;2022-09-25T01:40:28;97499.00;;;20.88;47.30
50057;BME280;36875;49.468;11.200;2022-09-25T01:43:04;97500.75;;;20.93;47.30
50057;BME280;36875;49.468;11.200;2022-09-25T01:45:36;97498.34;;;20.91;47.46
50057;BME280;36875;49.468;11.200;2022-09-25T01:48:03;97486.63;;;20.82;47.64
50057;BME280;36875;49.468;11.200;2022-09-25T01:50:35;97481.47;;;20.80;47.25
50057;BME280;36875;49.468;11.200;2022-09-25T01:53:09;97499.00;;;20.88;47.26
50057;BME280;36875;49.468;11.200;2022-09-25T01:55:41;97491.13;;;20.87;46.98
50057;BME280;36875;49.468;11.200;2022-09-25T01:58:13;97493.72;;;20.83;47.55
50057;BME280;36875;49.468;11.200;2022-09-25T02:00:44;97489.50;;;20.86;47.20
50057;BME280;36875;49.468;11.200;2022-09-25T02:03:19;97490.66;;;20.85;47.41
50057;BME280;36875;49.468;11.200;2022-09-25T02:05:49;97480.69;;;20.80;47.37
50057;BME280;36875;49.468;11.200;2022-09-25T02:08:20;97485.50;;;20.83;47.40
50057;BME280;36875;49.468;11.200;2022-09-25T02:10:49;97486.63;;;20.82;47.55
50057;BME280;36875;49.468;11.200;2022-09-25T02:13:17;97474.75;;;20.69;47.33
50057;BME280;36875;49.468;11.200;2022-09-25T02:15:49;97466.09;;;20.67;47.63
50057;BME280;36875;49.468;11.200;2022-09-25T02:18:17;97482.16;;;20.77;47.39
50057;BME280;36875;49.468;11.200;2022-09-25T02:21:11;97480.22;;;20.78;47.78
50057;BME280;36875;49.468;11.200;2022-09-25T02:23:43;97488.41;;;20.78;47.39
50057;BME280;36875;49.468;11.200;2022-09-25T02:26:16;97477.78;;;20.76;47.49
50057;BME280;36875;49.468;11.200;2022-09-25T02:28:44;97470.75;;;20.67;47.29
50057;BME280;36875;49.468;11.200;2022-09-25T02:31:12;97450.19;;;20.60;47.59
50057;BME280;36875;49.468;11.200;2022-09-25T02:33:41;97482.00;;;20.74;47.65
50057;BME280;36875;49.468;11.200;2022-09-25T02:36:06;97478.78;;;20.72;47.72
50057;BME280;36875;49.468;11.200;2022-09-25T02:38:32;97477.66;;;20.73;47.76
50057;BME280;36875;49.468;11.200;2022-09-25T02:41:04;97474.44;;;20.71;47.43
50057;BME280;36875;49.468;11.200;2022-09-25T02:43:44;97468.97;;;20.71;47.51
50057;BME280;36875;49.468;11.200;2022-09-25T02:46:16;97470.44;;;20.68;47.55
50057;BME280;36875;49.468;11.200;2022-09-25T02:48:50;97479.13;;;20.70;47.85
50057;BME280;36875;49.468;11.200;2022-09-25T02:51:21;97473.50;;;20.67;47.86
50057;BME280;36875;49.468;11.200;2022-09-25T02:53:58;97487.63;;;20.69;47.77
50057;BME280;36875;49.468;11.200;2022-09-25T02:56:28;97494.25;;;20.68;47.67
50057;BME280;36875;49.468;11.200;2022-09-25T02:59:00;97492.94;;;20.65;47.56
50057;BME280;36875;49.468;11.200;2022-09-25T03:01:31;97491.38;;;20.64;47.73
50057;BME280;36875;49.468;11.200;2022-09-25T03:03:59;97497.63;;;20.65;47.70
50057;BME280;36875;49.468;11.200;2022-09-25T03:06:25;97493.28;;;20.64;47.91
50057;BME280;36875;49.468;11.200;2022-09-25T03:08:54;97493.94;;;20.60;47.72
50057;BME280;36875;49.468;11.200;2022-09-25T03:11:22;97496.31;;;20.62;47.72
50057;BME280;36875;49.468;11.200;2022-09-25T03:13:54;97500.22;;;20.61;47.71
50057;BME280;36875;49.468;11.200;2022-09-25T03:16:28;97493.09;;;20.60;48.07
50057;BME280;36875;49.468;11.200;2022-09-25T03:18:57;97492.13;;;20.56;47.63
50057;BME280;36875;49.468;11.200;2022-09-25T03:21:22;97489.09;;;20.57;48.02
50057;BME280;36875;49.468;11.200;2022-09-25T03:23:48;97485.88;;;20.55;48.00
50057;BME280;36875;49.468;11.200;2022-09-25T03:26:13;97490.56;;;20.55;48.03
50057;BME280;36875;49.468;11.200;2022-09-25T03:28:38;97483.63;;;20.57;48.14
50057;BME280;36875;49.468;11.200;2022-09-25T03:31:06;97468.22;;;20.44;47.98
50057;BME280;36875;49.468;11.200;2022-09-25T03:33:34;97470.13;;;20.44;48.05
50057;BME280;36875;49.468;11.200;2022-09-25T03:36:04;97483.47;;;20.54;47.58
50057;BME280;36875;49.468;11.200;2022-09-25T03:38:30;97479.63;;;20.46;48.04
50057;BME280;36875;49.468;11.200;2022-09-25T03:40:56;97493.13;;;20.51;47.78
50057;BME280;36875;49.468;11.200;2022-09-25T03:43:21;97487.66;;;20.51;47.77
50057;BME280;36875;49.468;11.200;2022-09-25T03:45:47;97487.16;;;20.49;47.94
50057;BME280;36875;49.468;11.200;2022-09-25T03:48:12;97488.78;;;20.50;48.03
50057;BME280;36875;49.468;11.200;2022-09-25T03:50:38;97487.16;;;20.49;48.21
50057;BME280;36875;49.468;11.200;2022-09-25T03:53:05;97487.50;;;20.48;48.02
50057;BME280;36875;49.468;11.200;2022-09-25T03:55:30;97462.13;;;20.30;47.94
50057;BME280;36875;49.468;11.200;2022-09-25T03:57:56;97488.31;;;20.48;48.10
50057;BME280;36875;49.468;11.200;2022-09-25T04:00:21;97482.84;;;20.48;48.01
50057;BME280;36875;49.468;11.200;2022-09-25T04:02:48;97479.16;;;20.44;47.92
50057;BME280;36875;49.468;11.200;2022-09-25T04:05:14;97475.44;;;20.40;48.14
50057;BME280;36875;49.468;11.200;2022-09-25T04:07:39;97487.00;;;20.46;48.12
50057;BME280;36875;49.468;11.200;2022-09-25T04:10:07;97483.00;;;20.43;48.15
50057;BME280;36875;49.468;11.200;2022-09-25T04:12:33;97478.16;;;20.40;48.12
50057;BME280;36875;49.468;11.200;2022-09-25T04:14:58;97476.75;;;20.42;48.11
50057;BME280;36875;49.468;11.200;2022-09-25T04:17:24;97457.94;;;20.41;48.32
50057;BME280;36875;49.468;11.200;2022-09-25T04:19:49;97456.16;;;20.36;48.20
50057;BME280;36875;49.468;11.200;2022-09-25T04:22:16;97466.13;;;20.41;48.27
50057;BME280;36875;49.468;11.200;2022-09-25T04:24:41;97467.25;;;20.40;48.45
50057;BME280;36875;49.468;11.200;2022-09-25T04:27:14;97467.25;;;20.40;48.32
50057;BME280;36875;49.468;11.200;2022-09-25T04:29:39;97467.59;;;20.38;48.07
50057;BME280;36875;49.468;11.200;2022-09-25T04:32:06;97464.34;;;20.36;48.27
50057;BME280;36875;49.468;11.200;2022-09-25T04:34:50;97463.56;;;20.36;48.21
50057;BME280;36875;49.468;11.200;2022-09-25T04:37:16;97459.41;;;20.30;48.08
50057;BME280;36875;49.468;11.200;2022-09-25T04:39:41;97467.44;;;20.35;48.14
50057;BME280;36875;49.468;11.200;2022-09-25T04:42:07;97463.88;;;20.34;48.54
50057;BME280;36875;49.468;11.200;2022-09-25T04:44:33;97465.81;;;20.34;48.51
50057;BME280;36875;49.468;11.200;2022-09-25T04:46:59;97469.69;;;20.33;48.43
50057;BME280;36875;49.468;11.200;2022-09-25T04:49:24;97471.59;;;20.32;48.56
50057;BME280;36875;49.468;11.200;2022-09-25T04:51:50;97470.00;;;20.31;48.36
50057;BME280;36875;49.468;11.200;2022-09-25T04:54:15;97476.28;;;20.32;48.43
50057;BME280;36875;49.468;11.200;2022-09-25T04:56:41;97482.06;;;20.30;48.60
50057;BME280;36875;49.468;11.200;2022-09-25T04:59:07;97484.00;;;20.30;48.25
50057;BME280;36875;49.468;11.200;2022-09-25T05:01:34;97473.69;;;20.27;48.51
50057;BME280;36875;49.468;11.200;2022-09-25T05:03:59;97475.31;;;20.28;48.28
50057;BME280;36875;49.468;11.200;2022-09-25T05:06:25;97475.31;;;20.28;48.45
50057;BME280;36875;49.468;11.200;2022-09-25T05:08:51;97467.44;;;20.26;48.16
50057;BME280;36875;49.468;11.200;2022-09-25T05:11:17;97470.16;;;20.26;48.37
50057;BME280;36875;49.468;11.200;2022-09-25T05:13:43;97469.38;;;20.26;48.62
50057;BME280;36875;49.468;11.200;2022-09-25T05:16:11;97468.56;;;20.25;48.53
50057;BME280;36875;49.468;11.200;2022-09-25T05:18:38;97465.03;;;20.25;48.62
50057;BME280;36875;49.468;11.200;2022-09-25T05:21:04;97462.59;;;20.23;48.68
50057;BME280;36875;49.468;11.200;2022-09-25T05:23:29;97461.03;;;20.22;48.37
50057;BME280;36875;49.468;11.200;2022-09-25T05:25:55;97456.34;;;20.22;48.42
50057;BME280;36875;49.468;11.200;2022-09-25T05:28:24;97456.34;;;20.22;48.30
50057;BME280;36875;49.468;11.200;2022-09-25T05:30:50;97452.00;;;20.21;48.60
50057;BME280;36875;49.468;11.200;2022-09-25T05:33:16;97458.59;;;20.20;48.55
50057;BME280;36875;49.468;11.200;2022-09-25T05:35:45;97461.34;;;20.20;48.61
50057;BME280;36875;49.468;11.200;2022-09-25T05:38:10;97459.72;;;20.19;48.36
50057;BME280;36875;49.468;11.200;2022-09-25T05:40:36;97466.00;;;20.20;48.43
50057;BME280;36875;49.468;11.200;2022-09-25T05:43:05;97460.88;;;20.18;48.57
50057;BME280;36875;49.468;11.200;2022-09-25T05:45:31;97467.75;;;20.16;48.47
50057;BME280;36875;49.468;11.200;2022-09-25T05:47:59;97467.44;;;20.17;48.79
50057;BME280;36875;49.468;11.200;2022-09-25T05:50:25;97472.09;;;20.17;48.51
50057;BME280;36875;49.468;11.200;2022-09-25T05:52:55;97461.34;;;20.12;48.77
50057;BME280;36875;49.468;11.200;2022-09-25T05:55:21;97471.31;;;20.16;48.68
50057;BME280;36875;49.468;11.200;2022-09-25T05:57:46;97469.69;;;20.15;48.76
50057;BME280;36875;49.468;11.200;2022-09-25T06:00:12;97465.34;;;20.14;48.42
50057;BME280;36875;49.468;11.200;2022-09-25T06:02:39;97464.56;;;20.14;48.58
50057;BME280;36875;49.468;11.200;2022-09-25T06:05:04;97470.81;;;20.14;48.64
50057;BME280;36875;49.468;11.200;2022-09-25T06:07:30;97462.97;;;20.13;48.69
50057;BME280;36875;49.468;11.200;2022-09-25T06:09:57;97471.16;;;20.13;48.59
50057;BME280;36875;49.468;11.200;2022-09-25T06:12:22;97468.44;;;20.13;48.63
50057;BME280;36875;49.468;11.200;2022-09-25T06:14:49;97464.06;;;20.12;48.84
50057;BME280;36875;49.468;11.200;2022-09-25T06:17:14;97474.53;;;20.10;48.95
50057;BME280;36875;49.468;11.200;2022-09-25T06:19:40;97473.72;;;20.09;48.57
50057;BME280;36875;49.468;11.200;2022-09-25T06:22:05;97475.31;;;20.10;48.62
50057;BME280;36875;49.468;11.200;2022-09-25T06:24:30;97468.25;;;20.09;48.96
50057;BME280;36875;49.468;11.200;2022-09-25T06:26:57;97469.38;;;20.08;48.64
50057;BME280;36875;49.468;11.200;2022-09-25T06:29:23;97469.38;;;20.08;49.00
50057;BME280;36875;49.468;11.200;2022-09-25T06:31:50;97472.09;;;20.08;48.63
50057;BME280;36875;49.468;11.200;2022-09-25T06:34:16;97468.09;;;20.06;48.76
50057;BME280;36875;49.468;11.200;2022-09-25T06:36:41;97472.44;;;20.07;48.82
50057;BME280;36875;49.468;11.200;2022-09-25T06:39:07;97469.84;;;20.01;48.92
50057;BME280;36875;49.468;11.200;2022-09-25T06:41:33;97441.56;;;19.89;48.87
50057;BME280;36875;49.468;11.200;2022-09-25T06:44:00;97468.91;;;20.06;48.98
50057;BME280;36875;49.468;11.200;2022-09-25T06:46:26;97454.91;;;19.99;48.79
50057;BME280;36875;49.468;11.200;2022-09-25T06:48:51;97459.28;;;20.00;49.04
50057;BME280;36875;49.468;11.200;2022-09-25T06:51:18;97472.75;;;20.05;48.82
50057;BME280;36875;49.468;11.200;2022-09-25T06:53:44;97471.16;;;20.04;48.68
50057;BME280;36875;49.468;11.200;2022-09-25T06:56:09;97468.41;;;20.04;48.81
50057;BME280;36875;49.468;11.200;2022-09-25T06:58:35;97462.00;;;20.00;48.60
50057;BME280;36875;49.468;11.200;2022-09-25T07:01:02;97471.16;;;20.04;49.03
50057;BME280;36875;49.468;11.200;2022-09-25T07:03:28;97459.59;;;19.98;49.30
50057;BME280;36875;49.468;11.200;2022-09-25T07:06:10;97467.94;;;20.02;48.98
50057;BME280;36875;49.468;11.200;2022-09-25T07:08:37;97480.47;;;20.03;48.70
50057;BME280;36875;49.468;11.200;2022-09-25T07:11:03;97480.47;;;20.03;48.75
50057;BME280;36875;49.468;11.200;2022-09-25T07:13:31;97475.66;;;20.00;48.99
50057;BME280;36875;49.468;11.200;2022-09-25T07:15:58;97475.66;;;20.00;49.15
50057;BME280;36875;49.468;11.200;2022-09-25T07:18:26;97485.13;;;20.02;49.12
50057;BME280;36875;49.468;11.200;2022-09-25T07:20:53;97481.13;;;20.00;49.39
50057;BME280;36875;49.468;11.200;2022-09-25T07:23:23;97487.06;;;20.02;49.26
50057;BME280;36875;49.468;11.200;2022-09-25T07:25:49;97481.13;;;20.00;49.32
50057;BME280;36875;49.468;11.200;2022-09-25T07:28:15;97484.34;;;20.02;49.31
50057;BME280;36875;49.468;11.200;2022-09-25T07:30:43;97488.97;;;20.01;49.17
50057;BME280;36875;49.468;11.200;2022-09-25T07:33:09;97485.75;;;19.99;49.51
50057;BME280;36875;49.468;11.200;2022-09-25T07:35:36;97487.38;;;20.00;49.29
50057;BME280;36875;49.468;11.200;2022-09-25T07:38:02;97484.97;;;19.99;49.76
50057;BME280;36875;49.468;11.200;2022-09-25T07:40:29;97477.09;;;19.97;49.75
50057;BME280;36875;49.468;11.200;2022-09-25T07:42:57;97481.59;;;20.02;50.34
50057;BME280;36875;49.468;11.200;2022-09-25T07:45:23;97480.63;;;20.07;51.50
50057;BME280;36875;49.468;11.200;2022-09-25T07:47:48;97475.16;;;20.07;51.17
50057;BME280;36875;49.468;11.200;2022-09-25T07:50:14;97480.47;;;20.12;51.14
50057;BME280;36875;49.468;11.200;2022-09-25T07:52:41;97477.09;;;20.15;51.23
50057;BME280;36875;49.468;11.200;2022-09-25T07:55:07;97485.13;;;20.20;51.09
50057;BME280;36875;49.468;11.200;2022-09-25T07:57:33;97485.78;;;20.26;51.18
50057;BME280;36875;49.468;11.200;2022-09-25T07:59:58;97491.19;;;20.34;51.14
50057;BME280;36875;49.468;11.200;2022-09-25T08:02:24;97488.31;;;20.39;50.76
50057;BME280;36875;49.468;11.200;2022-09-25T08:04:49;97476.44;;;20.35;50.51
50057;BME280;36875;49.468;11.200;2022-09-25T08:07:15;97481.69;;;20.49;50.41
50057;BME280;36875;49.468;11.200;2022-09-25T08:09:42;97483.63;;;20.49;50.38
50057;BME280;36875;49.468;11.200;2022-09-25T08:12:09;97488.63;;;20.47;50.49
50057;BME280;36875;49.468;11.200;2022-09-25T08:14:35;97483.47;;;20.54;50.33
50057;BME280;36875;49.468;11.200;2022-09-25T08:17:01;97477.84;;;20.68;50.49
50057;BME280;36875;49.468;11.200;2022-09-25T08:19:26;97484.88;;;20.86;50.37
50057;BME280;36875;49.468;11.200;2022-09-25T08:21:52;97483.19;;;21.03;49.91
50057;BME280;36875;49.468;11.200;2022-09-25T08:24:18;97487.88;;;21.32;49.68
50057;BME280;36875;49.468;11.200;2022-09-25T08:26:45;97488.75;;;21.53;48.96
50057;BME280;36875;49.468;11.200;2022-09-25T08:29:10;97482.75;;;21.81;48.68
50057;BME280;36875;49.468;11.200;2022-09-25T08:31:36;97488.56;;;22.22;47.57
50057;BME280;36875;49.468;11.200;2022-09-25T08:34:01;97488.75;;;22.71;46.69
50057;BME280;36875;49.468;11.200;2022-09-25T08:36:27;97488.00;;;22.83;46.46
50057;BME280;36875;49.468;11.200;2022-09-25T08:38:52;97484.44;;;22.70;46.51
50057;BME280;36875;49.468;11.200;2022-09-25T08:41:25;97486.47;;;22.73;46.30
50057;BME280;36875;49.468;11.200;2022-09-25T08:43:58;97483.06;;;22.76;46.45
50057;BME280;36875;49.468;11.200;2022-09-25T08:46:35;97483.28;;;22.71;46.58
50057;BME280;36875;49.468;11.200;2022-09-25T08:49:22;97474.97;;;22.80;46.23
50057;BME280;36875;49.468;11.200;2022-09-25T08:51:52;97470.84;;;22.74;46.50
50057;BME280;36875;49.468;11.200;2022-09-25T08:54:23;97480.31;;;22.76;46.54
50057;BME280;36875;49.468;11.200;2022-09-25T08:56:50;97474.00;;;22.63;46.63
50057;BME280;36875;49.468;11.200;2022-09-25T08:59:25;97474.34;;;22.62;46.79
50057;BME280;36875;49.468;11.200;2022-09-25T09:01:56;97471.19;;;22.72;46.39
50057;BME280;36875;49.468;11.200;2022-09-25T09:04:26;97474.16;;;22.79;46.20
50057;BME280;36875;49.468;11.200;2022-09-25T09:06:56;97462.94;;;22.72;46.38
50057;BME280;36875;49.468;11.200;2022-09-25T09:09:26;97472.13;;;22.88;46.14
50057;BME280;36875;49.468;11.200;2022-09-25T09:11:56;97467.44;;;22.89;45.96
50057;BME280;36875;49.468;11.200;2022-09-25T09:14:29;97466.47;;;22.73;46.18
50057;BME280;36875;49.468;11.200;2022-09-25T09:16:59;97456.31;;;22.73;46.08
50057;BME280;36875;49.468;11.200;2022-09-25T09:19:25;97453.34;;;22.78;46.03
50057;BME280;36875;49.468;11.200;2022-09-25T09:21:57;97446.50;;;22.72;46.02
50057;BME280;36875;49.468;11.200;2022-09-25T09:24:33;97452.88;;;22.76;46.15
50057;BME280;36875;49.468;11.200;2022-09-25T09:27:11;97446.81;;;22.70;46.08
50057;BME280;36875;49.468;11.200;2022-09-25T09:29:57;97457.34;;;22.81;45.59
50057;BME280;36875;49.468;11.200;2022-09-25T09:32:52;97460.19;;;22.72;46.14
50057;BME280;36875;49.468;11.200;2022-09-25T09:35:26;97461.53;;;22.66;46.08
50057;BME280;36875;49.468;11.200;2022-09-25T09:38:02;97461.78;;;22.61;46.29
50057;BME280;36875;49.468;11.200;2022-09-25T09:40:42;97456.75;;;22.63;46.03
50057;BME280;36875;49.468;11.200;2022-09-25T09:43:21;97453.56;;;22.61;46.40
50057;BME280;36875;49.468;11.200;2022-09-25T09:46:01;97460.16;;;22.60;46.23
50057;BME280;36875;49.468;11.200;2022-09-25T09:48:34;97456.97;;;22.58;46.33
50057;BME280;36875;49.468;11.200;2022-09-25T09:51:06;97440.94;;;22.47;46.29
50057;BME280;36875;49.468;11.200;2022-09-25T09:53:38;97452.47;;;22.53;46.38
50057;BME280;36875;49.468;11.200;2022-09-25T09:56:11;97454.09;;;22.54;46.30
50057;BME280;36875;49.468;11.200;2022-09-25T09:58:44;97449.75;;;22.53;46.25
50057;BME280;36875;49.468;11.200;2022-09-25T10:01:13;97448.50;;;22.50;46.20
50057;BME280;36875;49.468;11.200;2022-09-25T10:03:40;97446.88;;;22.49;46.47
50057;BME280;36875;49.468;11.200;2022-09-25T10:06:08;97445.09;;;22.54;46.26
50057;BME280;36875;49.468;11.200;2022-09-25T10:08:35;97432.03;;;22.50;46.28
50057;BME280;36875;49.468;11.200;2022-09-25T10:11:05;97428.38;;;22.46;46.28
50057;BME280;36875;49.468;11.200;2022-09-25T10:13:36;97425.75;;;22.50;46.30
50057;BME280;36875;49.468;11.200;2022-09-25T10:16:04;97413.84;;;22.46;46.24
50057;BME280;36875;49.468;11.200;2022-09-25T10:18:35;97407.25;;;22.47;46.33
50057;BME280;36875;49.468;11.200;2022-09-25T10:21:09;97389.84;;;22.30;46.12
50057;BME280;36875;49.468;11.200;2022-09-25T10:23:38;97390.66;;;22.43;46.20
50057;BME280;36875;49.468;11.200;2022-09-25T10:26:22;97408.03;;;22.47;46.22
50057;BME280;36875;49.468;11.200;2022-09-25T10:28:47;97413.06;;;22.45;46.01
50057;BME280;36875;49.468;11.200;2022-09-25T10:31:14;97418.22;;;22.47;46.22
50057;BME280;36875;49.468;11.200;2022-09-25T10:33:42;97407.00;;;22.40;46.43
50057;BME280;36875;49.468;11.200;2022-09-25T10:36:29;97416.59;;;22.46;46.12
50057;BME280;36875;49.468;11.200;2022-09-25T10:38:55;97416.47;;;22.42;46.62
50057;BME280;36875;49.468;11.200;2022-09-25T10:41:21;97408.25;;;22.42;46.51
50057;BME280;36875;49.468;11.200;2022-09-25T10:43:51;97404.25;;;22.40;46.23
50057;BME280;36875;49.468;11.200;2022-09-25T10:46:27;97404.59;;;22.38;46.27
50057;BME280;36875;49.468;11.200;2022-09-25T10:49:17;97399.69;;;22.31;46.26
50057;BME280;36875;49.468;11.200;2022-09-25T10:52:03;97406.19;;;22.39;46.29
50057;BME280;36875;49.468;11.200;2022-09-25T10:54:32;97411.81;;;22.43;46.26
50057;BME280;36875;49.468;11.200;2022-09-25T10:56:58;97410.78;;;22.47;46.18
50057;BME280;36875;49.468;11.200;2022-09-25T10:59:24;97404.38;;;22.43;46.24
50057;BME280;36875;49.468;11.200;2022-09-25T11:01:51;97396.00;;;22.27;46.33
50057;BME280;36875;49.468;11.200;2022-09-25T11:04:22;97409.16;;;22.34;46.35
50057;BME280;36875;49.468;11.200;2022-09-25T11:06:51;97396.34;;;22.26;46.32
50057;BME280;36875;49.468;11.200;2022-09-25T11:09:19;97403.53;;;22.30;46.42
50057;BME280;36875;49.468;11.200;2022-09-25T11:11:47;97405.50;;;22.30;46.27
50057;BME280;36875;49.468;11.200;2022-09-25T11:14:20;97410.50;;;22.28;46.51
50057;BME280;36875;49.468;11.200;2022-09-25T11:16:50;97410.34;;;22.24;46.52
50057;BME280;36875;49.468;11.200;2022-09-25T11:19:28;97411.16;;;22.25;46.47
50057;BME280;36875;49.468;11.200;2022-09-25T11:22:06;97393.53;;;22.13;46.52
50057;BME280;36875;49.468;11.200;2022-09-25T11:24:52;97399.84;;;21.93;47.11
50057;BME280;36875;49.468;11.200;2022-09-25T11:27:25;97393.84;;;21.79;47.41
50057;BME280;36875;49.468;11.200;2022-09-25T11:30:02;97382.31;;;21.73;46.87
50057;BME280;36875;49.468;11.200;2022-09-25T11:32:34;97387.94;;;21.89;47.12
50057;BME280;36875;49.468;11.200;2022-09-25T11:35:16;97392.91;;;21.95;47.17
50057;BME280;36875;49.468;11.200;2022-09-25T11:37:51;97387.09;;;21.97;47.07
50057;BME280;36875;49.468;11.200;2022-09-25T11:40:29;97381.94;;;21.95;47.15
50057;BME280;36875;49.468;11.200;2022-09-25T11:43:15;97387.41;;;21.95;46.91
50057;BME280;36875;49.468;11.200;2022-09-25T11:45:47;97387.28;;;21.92;46.88
50057;BME280;36875;49.468;11.200;2022-09-25T11:48:19;97384.09;;;21.90;46.97
50057;BME280;36875;49.468;11.200;2022-09-25T11:50:57;97365.69;;;21.78;47.07
50057;BME280;36875;49.468;11.200;2022-09-25T11:53:31;97376.34;;;21.92;47.24
50057;BME280;36875;49.468;11.200;2022-09-25T11:56:13;97381.00;;;21.91;47.06
50057;BME280;36875;49.468;11.200;2022-09-25T11:58:55;97363.72;;;21.79;47.20
50057;BME280;36875;49.468;11.200;2022-09-25T12:01:30;97378.59;;;21.90;47.23
50057;BME280;36875;49.468;11.200;2022-09-25T12:04:12;97376.06;;;21.85;47.29
50057;BME280;36875;49.468;11.200;2022-09-25T12:06:57;97364.19;;;21.81;47.25
50057;BME280;36875;49.468;11.200;2022-09-25T12:09:41;97365.31;;;21.80;47.30
50057;BME280;36875;49.468;11.200;2022-09-25T12:12:18;97369.06;;;21.75;47.40
50057;BME280;36875;49.468;11.200;2022-09-25T12:14:52;97376.97;;;21.77;47.50
50057;BME280;36875;49.468;11.200;2022-09-25T12:17:28;97379.25;;;21.74;47.49
50057;BME280;36875;49.468;11.200;2022-09-25T12:19:59;97378.16;;;21.67;47.94
50057;BME280;36875;49.468;11.200;2022-09-25T12:22:41;97389.38;;;21.74;47.53
50057;BME280;36875;49.468;11.200;2022-09-25T12:25:24;97392.09;;;21.74;47.84
50057;BME280;36875;49.468;11.200;2022-09-25T12:28:00;97404.69;;;21.75;47.94
50057;BME280;36875;49.468;11.200;2022-09-25T12:30:33;97406.97;;;21.73;48.08
50057;BME280;36875;49.468;11.200;2022-09-25T12:33:17;97369.75;;;21.51;48.05
50057;BME280;36875;49.468;11.200;2022-09-25T12:35:50;97400.66;;;21.72;48.26
50057;BME280;36875;49.468;11.200;2022-09-25T12:38:24;97397.25;;;21.75;48.10
50057;BME280;36875;49.468;11.200;2022-09-25T12:40:56;97401.81;;;21.71;48.30
50057;BME280;36875;49.468;11.200;2022-09-25T12:43:27;97395.19;;;21.72;48.01
50057;BME280;36875;49.468;11.200;2022-09-25T12:45:57;97399.06;;;21.71;48.24
50057;BME280;36875;49.468;11.200;2022-09-25T12:48:30;97393.59;;;21.71;48.43
50057;BME280;36875;49.468;11.200;2022-09-25T12:51:01;97377.34;;;21.66;48.41
50057;BME280;36875;49.468;11.200;2022-09-25T12:53:33;97386.44;;;21.79;48.30
50057;BME280;36875;49.468;11.200;2022-09-25T12:56:07;97385.81;;;21.94;48.11
50057;BME280;36875;49.468;11.200;2022-09-25T12:58:51;97390.34;;;22.11;48.21
50057;BME280;36875;49.468;11.200;2022-09-25T13:01:24;97386.56;;;22.37;47.58
50057;BME280;36875;49.468;11.200;2022-09-25T13:03:59;97388.88;;;22.60;47.43